sensor_id;sensor_type;location;lat;lon;timestamp;pressure;altitude;pressure_sealevel;temperature;humidity
61434;BME280;47300;46.192;9.000;2022-11-11T00:00:24;99858.47;;;9.73;100.00
61434;BME280;47300;46.192;9.000;2022-11-11T00:02:50;99859.56;;;9.82;100.00
61434;BME280;47300;46.192;9.000;2022-11-11T00:05:16;99854.25;;;9.79;100.00
61434;BME280;47300;46.192;9.000;2022-11-11T00:07:42;99856.94;;;9.82;100.00
61434;BME280;47300;46.192;9.000;2022-11-11T00:10:08;99864.00;;;9.85;100.00
61434;BME280;47300;46.192;9.000;2022-11-11T00:12:34;99855.47;;;9.97;100.00
61434;BME280;47300;46.192;9.000;2022-11-11T00:14:59;99856.19;;;9.90;100.00
61434;BME280;47300;46.192;9.000;2022-11-11T00:17:25;99842.91;;;9.80;100.00
61434;BME280;47300;46.192;9.000;2022-11-11T00:20:20;99853.25;;;9.74;100.00
61434;BME280;47300;46.192;9.000;2022-11-11T00:23:04;99847.72;;;9.60;100.00
61434;BME280;47300;46.192;9.000;2022-11-11T00:25:52;99845.47;;;9.79;100.00
61434;BME280;47300;46.192;9.000;2022-11-11T00:28:18;99854.47;;;9.90;100.00
61434;BME280;47300;46.192;9.000;2022-11-11T00:30:44;99854.47;;;9.90;100.00
61434;BME280;47300;46.192;9.000;2022-11-11T00:33:09;99850.50;;;9.68;100.00
61434;BME280;47300;46.192;9.000;2022-11-11T00:35:34;99856.22;;;9.50;100.00
61434;BME280;47300;46.192;9.000;2022-11-11T00:38:18;99854.34;;;9.44;100.00
61434;BME280;47300;46.192;9.000;2022-11-11T00:41:15;99855.22;;;9.45;100.00
61434;BME280;47300;46.192;9.000;2022-11-11T00:43:42;99854.16;;;9.36;100.00
61434;BME280;47300;46.192;9.000;2022-11-11T00:46:08;99845.50;;;9.40;100.00
61434;BME280;47300;46.192;9.000;2022-11-11T00:48:52;99848.19;;;9.42;100.00
61434;BME280;47300;46.192;9.000;2022-11-11T00:51:37;99853.81;;;9.61;100.00
61434;BME280;47300;46.192;9.000;2022-11-11T00:54:02;99855.91;;;9.76;100.00
61434;BME280;47300;46.192;9.000;2022-11-11T00:56:28;99852.53;;;9.81;100.00
61434;BME280;47300;46.192;9.000;2022-11-11T00:58:53;99857.72;;;9.78;100.00
61434;BME280;47300;46.192;9.000;2022-11-11T01:01:18;99852.94;;;9.60;100.00
61434;BME280;47300;46.192;9.000;2022-11-11T01:03:44;99852.16;;;9.64;100.00
61434;BME280;47300;46.192;9.000;2022-11-11T01:06:11;99849.97;;;9.45;100.00
61434;BME280;47300;46.192;9.000;2022-11-11T01:08:36;99852.28;;;9.31;100.00
61434;BME280;47300;46.192;9.000;2022-11-11T01:11:02;99849.28;;;9.53;100.00
61434;BME280;47300;46.192;9.000;2022-11-11T01:13:30;99856.03;;;9.42;100.00
61434;BME280;47300;46.192;9.000;2022-11-11T01:16:02;99867.31;;;9.38;100.00
61434;BME280;47300;46.192;9.000;2022-11-11T01:18:27;99864.84;;;9.46;100.00
61434;BME280;47300;46.192;9.000;2022-11-11T01:21:17;99865.56;;;9.38;100.00
61434;BME280;47300;46.192;9.000;2022-11-11T01:23:44;99866.34;;;9.34;100.00
61434;BME280;47300;46.192;9.000;2022-11-11T01:26:22;99860.56;;;9.49;100.00
61434;BME280;47300;46.192;9.000;2022-11-11T01:28:54;99861.53;;;9.53;100.00
61434;BME280;47300;46.192;9.000;2022-11-11T01:31:22;99861.28;;;9.42;100.00
61434;BME280;47300;46.192;9.000;2022-11-11T01:33:48;99852.84;;;9.55;100.00
61434;BME280;47300;46.192;9.000;2022-11-11T01:36:20;99864.69;;;9.38;100.00
61434;BME280;47300;46.192;9.000;2022-11-11T01:38:54;99855.06;;;9.38;100.00
61434;BME280;47300;46.192;9.000;2022-11-11T01:41:22;99872.53;;;9.38;100.00
61434;BME280;47300;46.192;9.000;2022-11-11T01:44:02;99873.47;;;9.41;100.00
61434;BME280;47300;46.192;9.000;2022-11-11T01:46:48;99875.13;;;9.36;100.00
61434;BME280;47300;46.192;9.000;2022-11-11T01:52:13;99875.19;;;9.39;100.00
61434;BME280;47300;46.192;9.000;2022-11-11T01:54:45;99874.13;;;9.31;100.00
61434;BME280;47300;46.192;9.000;2022-11-11T01:57:27;99879.84;;;9.15;100.00
61434;BME280;47300;46.192;9.000;2022-11-11T02:00:07;99881.66;;;9.17;100.00
61434;BME280;47300;46.192;9.000;2022-11-11T02:02:38;99874.53;;;9.11;100.00
61434;BME280;47300;46.192;9.000;2022-11-11T02:05:08;99877.22;;;9.15;100.00
61434;BME280;47300;46.192;9.000;2022-11-11T02:07:54;99870.22;;;9.14;100.00
61434;BME280;47300;46.192;9.000;2022-11-11T02:10:23;99866.34;;;8.97;100.00
61434;BME280;47300;46.192;9.000;2022-11-11T02:12:49;99856.16;;;9.10;100.00
61434;BME280;47300;46.192;9.000;2022-11-11T02:15:33;99863.94;;;9.07;100.00
61434;BME280;47300;46.192;9.000;2022-11-11T02:17:59;99859.25;;;8.93;100.00
61434;BME280;47300;46.192;9.000;2022-11-11T02:20:26;99861.03;;;8.94;100.00
61434;BME280;47300;46.192;9.000;2022-11-11T02:25:38;99856.78;;;9.00;100.00
61434;BME280;47300;46.192;9.000;2022-11-11T02:28:06;99862.75;;;8.94;100.00
61434;BME280;47300;46.192;9.000;2022-11-11T02:30:32;99855.94;;;9.02;100.00
61434;BME280;47300;46.192;9.000;2022-11-11T02:32:57;99855.00;;;8.98;100.00
61434;BME280;47300;46.192;9.000;2022-11-11T02:37:56;99851.69;;;9.06;100.00
61434;BME280;47300;46.192;9.000;2022-11-11T02:40:31;99850.63;;;8.99;100.00
61434;BME280;47300;46.192;9.000;2022-11-11T02:42:59;99848.88;;;8.98;100.00
61434;BME280;47300;46.192;9.000;2022-11-11T02:45:24;99849.72;;;8.97;100.00
61434;BME280;47300;46.192;9.000;2022-11-11T02:47:50;99858.75;;;8.75;100.00
61434;BME280;47300;46.192;9.000;2022-11-11T02:50:15;99856.28;;;8.79;100.00
61434;BME280;47300;46.192;9.000;2022-11-11T02:52:40;99855.69;;;8.58;100.00
61434;BME280;47300;46.192;9.000;2022-11-11T02:55:06;99858.59;;;8.68;100.00
61434;BME280;47300;46.192;9.000;2022-11-11T02:57:32;99851.47;;;8.63;100.00
61434;BME280;47300;46.192;9.000;2022-11-11T02:59:58;99854.16;;;8.66;100.00
61434;BME280;47300;46.192;9.000;2022-11-11T03:02:25;99855.16;;;8.69;100.00
61434;BME280;47300;46.192;9.000;2022-11-11T03:04:52;99848.75;;;8.58;100.00
61434;BME280;47300;46.192;9.000;2022-11-11T03:07:18;99855.00;;;8.65;100.00
61434;BME280;47300;46.192;9.000;2022-11-11T03:09:43;99861.75;;;8.55;100.00
61434;BME280;47300;46.192;9.000;2022-11-11T03:12:08;99858.03;;;8.48;100.00
61434;BME280;47300;46.192;9.000;2022-11-11T03:14:34;99856.91;;;8.38;100.00
61434;BME280;47300;46.192;9.000;2022-11-11T03:16:59;99860.38;;;8.37;100.00
61434;BME280;47300;46.192;9.000;2022-11-11T03:19:43;99865.75;;;8.44;100.00
61434;BME280;47300;46.192;9.000;2022-11-11T03:22:08;99868.06;;;8.33;100.00
61434;BME280;47300;46.192;9.000;2022-11-11T03:24:33;99875.31;;;8.42;100.00
61434;BME280;47300;46.192;9.000;2022-11-11T03:27:17;99878.59;;;8.34;100.00
61434;BME280;47300;46.192;9.000;2022-11-11T03:29:42;99878.50;;;8.31;100.00
61434;BME280;47300;46.192;9.000;2022-11-11T03:32:08;99873.41;;;8.36;100.00
61434;BME280;47300;46.192;9.000;2022-11-11T03:34:33;99874.38;;;8.39;100.00
61434;BME280;47300;46.192;9.000;2022-11-11T03:36:59;99874.25;;;8.35;100.00
61434;BME280;47300;46.192;9.000;2022-11-11T03:39:43;99884.06;;;8.42;100.00
61434;BME280;47300;46.192;9.000;2022-11-11T03:42:08;99887.34;;;8.35;100.00
61434;BME280;47300;46.192;9.000;2022-11-11T03:44:33;99885.59;;;8.35;100.00
61434;BME280;47300;46.192;9.000;2022-11-11T03:46:59;99884.91;;;8.41;100.00
61434;BME280;47300;46.192;9.000;2022-11-11T03:49:24;99899.84;;;8.45;100.00
61434;BME280;47300;46.192;9.000;2022-11-11T03:51:49;99900.13;;;8.54;100.00
61434;BME280;47300;46.192;9.000;2022-11-11T03:54:15;99904.47;;;8.54;100.00
61434;BME280;47300;46.192;9.000;2022-11-11T03:56:40;99913.53;;;8.67;100.00
61434;BME280;47300;46.192;9.000;2022-11-11T03:59:05;99919.41;;;8.58;100.00
61434;BME280;47300;46.192;9.000;2022-11-11T04:01:30;99925.41;;;8.54;100.00
61434;BME280;47300;46.192;9.000;2022-11-11T04:04:14;99918.19;;;8.47;100.00
61434;BME280;47300;46.192;9.000;2022-11-11T04:06:58;99906.50;;;8.34;100.00
61434;BME280;47300;46.192;9.000;2022-11-11T04:09:42;99908.31;;;8.36;100.00
61434;BME280;47300;46.192;9.000;2022-11-11T04:12:27;99900.28;;;8.30;100.00
61434;BME280;47300;46.192;9.000;2022-11-11T04:14:53;99908.72;;;8.50;100.00
61434;BME280;47300;46.192;9.000;2022-11-11T04:17:56;99906.97;;;8.51;100.00
61434;BME280;47300;46.192;9.000;2022-11-11T04:20:21;99910.59;;;8.54;100.00
61434;BME280;47300;46.192;9.000;2022-11-11T04:23:05;99907.97;;;8.54;100.00
61434;BME280;47300;46.192;9.000;2022-11-11T04:25:31;99911.81;;;8.67;100.00
61434;BME280;47300;46.192;9.000;2022-11-11T04:28:15;99910.13;;;8.71;100.00
61434;BME280;47300;46.192;9.000;2022-11-11T04:31:00;99915.34;;;8.69;100.00
61434;BME280;47300;46.192;9.000;2022-11-11T04:33:25;99922.06;;;8.60;100.00
61434;BME280;47300;46.192;9.000;2022-11-11T04:35:51;99919.00;;;8.44;100.00
61434;BME280;47300;46.192;9.000;2022-11-11T04:38:16;99928.22;;;8.31;100.00
61434;BME280;47300;46.192;9.000;2022-11-11T04:41:00;99925.91;;;8.42;100.00
61434;BME280;47300;46.192;9.000;2022-11-11T04:43:29;99933.31;;;8.26;100.00
61434;BME280;47300;46.192;9.000;2022-11-11T04:45:58;99934.28;;;8.59;100.00
61434;BME280;47300;46.192;9.000;2022-11-11T04:48:24;99935.38;;;8.37;100.00
61434;BME280;47300;46.192;9.000;2022-11-11T04:50:50;99937.34;;;8.15;100.00
61434;BME280;47300;46.192;9.000;2022-11-11T04:53:15;99937.78;;;8.00;100.00
61434;BME280;47300;46.192;9.000;2022-11-11T04:55:42;99931.66;;;8.00;100.00
61434;BME280;47300;46.192;9.000;2022-11-11T04:58:32;99938.84;;;8.07;100.00
61434;BME280;47300;46.192;9.000;2022-11-11T05:00:58;99935.06;;;7.97;100.00
61434;BME280;47300;46.192;9.000;2022-11-11T05:03:24;99946.28;;;7.93;100.00
61434;BME280;47300;46.192;9.000;2022-11-11T05:05:58;99938.28;;;7.88;100.00
61434;BME280;47300;46.192;9.000;2022-11-11T05:08:45;99941.53;;;7.79;100.00
61434;BME280;47300;46.192;9.000;2022-11-11T05:11:22;99952.25;;;7.89;100.00
61434;BME280;47300;46.192;9.000;2022-11-11T05:13:47;99954.91;;;7.90;100.00
61434;BME280;47300;46.192;9.000;2022-11-11T05:16:33;99956.66;;;7.91;100.00
61434;BME280;47300;46.192;9.000;2022-11-11T05:19:19;99956.38;;;7.80;100.00
61434;BME280;47300;46.192;9.000;2022-11-11T05:22:21;99958.31;;;7.88;100.00
61434;BME280;47300;46.192;9.000;2022-11-11T05:24:47;99954.78;;;7.86;100.00
61434;BME280;47300;46.192;9.000;2022-11-11T05:27:31;99949.44;;;7.82;100.00
61434;BME280;47300;46.192;9.000;2022-11-11T05:29:56;99952.47;;;7.67;100.00
61434;BME280;47300;46.192;9.000;2022-11-11T05:32:22;99952.84;;;7.80;100.00
61434;BME280;47300;46.192;9.000;2022-11-11T05:34:48;99956.91;;;7.99;100.00
61434;BME280;47300;46.192;9.000;2022-11-11T05:37:14;99958.78;;;8.03;100.00
61434;BME280;47300;46.192;9.000;2022-11-11T05:39:40;99959.69;;;8.04;100.00
61434;BME280;47300;46.192;9.000;2022-11-11T05:42:06;99959.38;;;7.94;100.00
61434;BME280;47300;46.192;9.000;2022-11-11T05:44:31;99963.91;;;8.00;100.00
61434;BME280;47300;46.192;9.000;2022-11-11T05:46:57;99962.84;;;7.93;100.00
61434;BME280;47300;46.192;9.000;2022-11-11T05:49:22;99969.31;;;8.05;100.00
61434;BME280;47300;46.192;9.000;2022-11-11T05:51:49;99983.03;;;7.97;100.00
61434;BME280;47300;46.192;9.000;2022-11-11T05:54:15;99982.91;;;7.94;100.00
61434;BME280;47300;46.192;9.000;2022-11-11T05:56:41;99980.34;;;7.96;100.00
61434;BME280;47300;46.192;9.000;2022-11-11T05:59:07;99985.03;;;7.77;100.00
61434;BME280;47300;46.192;9.000;2022-11-11T06:01:33;99984.84;;;8.00;100.00
61434;BME280;47300;46.192;9.000;2022-11-11T06:03:58;99987.03;;;8.15;100.00
61434;BME280;47300;46.192;9.000;2022-11-11T06:06:24;99988.53;;;8.07;100.00
61434;BME280;47300;46.192;9.000;2022-11-11T06:08:50;99990.75;;;8.22;100.00
61434;BME280;47300;46.192;9.000;2022-11-11T06:11:16;99988.97;;;8.21;100.00
61434;BME280;47300;46.192;9.000;2022-11-11T06:13:41;99991.06;;;8.04;100.00
61434;BME280;47300;46.192;9.000;2022-11-11T06:16:08;99996.44;;;7.81;100.00
61434;BME280;47300;46.192;9.000;2022-11-11T06:18:34;99991.28;;;7.82;100.00
61434;BME280;47300;46.192;9.000;2022-11-11T06:20:59;100002.53;;;7.54;100.00
61434;BME280;47300;46.192;9.000;2022-11-11T06:23:26;100001.38;;;7.44;100.00
61434;BME280;47300;46.192;9.000;2022-11-11T06:25:53;100000.25;;;7.37;100.00
61434;BME280;47300;46.192;9.000;2022-11-11T06:31:10;100001.66;;;7.79;100.00
61434;BME280;47300;46.192;9.000;2022-11-11T06:33:36;99995.78;;;7.88;100.00
61434;BME280;47300;46.192;9.000;2022-11-11T06:36:03;99995.59;;;7.82;100.00
61434;BME280;47300;46.192;9.000;2022-11-11T06:38:29;99993.47;;;7.70;100.00
61434;BME280;47300;46.192;9.000;2022-11-11T06:40:55;99994.47;;;7.46;100.00
61434;BME280;47300;46.192;9.000;2022-11-11T06:43:20;99997.72;;;7.39;100.00
61434;BME280;47300;46.192;9.000;2022-11-11T06:45:52;100001.00;;;7.59;100.00
61434;BME280;47300;46.192;9.000;2022-11-11T06:48:18;100002.22;;;7.43;100.00
61434;BME280;47300;46.192;9.000;2022-11-11T06:50:43;100006.25;;;7.61;100.00
61434;BME280;47300;46.192;9.000;2022-11-11T06:53:10;100002.09;;;7.40;100.00
61434;BME280;47300;46.192;9.000;2022-11-11T06:55:36;100001.38;;;7.18;100.00
61434;BME280;47300;46.192;9.000;2022-11-11T06:58:09;99994.38;;;7.43;100.00
61434;BME280;47300;46.192;9.000;2022-11-11T07:00:35;99997.31;;;7.54;100.00
61434;BME280;47300;46.192;9.000;2022-11-11T07:03:02;100005.56;;;7.66;100.00
61434;BME280;47300;46.192;9.000;2022-11-11T07:05:28;99997.88;;;7.71;100.00
61434;BME280;47300;46.192;9.000;2022-11-11T07:07:54;100009.41;;;7.78;100.00
61434;BME280;47300;46.192;9.000;2022-11-11T07:10:20;100016.38;;;7.77;100.00
61434;BME280;47300;46.192;9.000;2022-11-11T07:12:45;100012.94;;;7.78;100.00
61434;BME280;47300;46.192;9.000;2022-11-11T07:15:11;100015.00;;;7.89;100.00
61434;BME280;47300;46.192;9.000;2022-11-11T07:17:36;100024.44;;;7.84;100.00
61434;BME280;47300;46.192;9.000;2022-11-11T07:20:02;100023.69;;;7.88;100.00
61434;BME280;47300;46.192;9.000;2022-11-11T07:22:27;100026.66;;;7.99;100.00
61434;BME280;47300;46.192;9.000;2022-11-11T07:24:53;100021.34;;;7.97;100.00
61434;BME280;47300;46.192;9.000;2022-11-11T07:27:18;100012.75;;;8.01;100.00
61434;BME280;47300;46.192;9.000;2022-11-11T07:29:43;100022.38;;;8.02;100.00
61434;BME280;47300;46.192;9.000;2022-11-11T07:32:08;100006.56;;;8.54;100.00
61434;BME280;47300;46.192;9.000;2022-11-11T07:34:34;100006.00;;;9.30;100.00
61434;BME280;47300;46.192;9.000;2022-11-11T07:36:59;100008.84;;;9.75;100.00
61434;BME280;47300;46.192;9.000;2022-11-11T07:39:24;100006.22;;;10.11;98.15
61434;BME280;47300;46.192;9.000;2022-11-11T07:41:50;100009.22;;;10.28;97.32
61434;BME280;47300;46.192;9.000;2022-11-11T07:44:15;100008.66;;;10.42;95.56
61434;BME280;47300;46.192;9.000;2022-11-11T07:46:41;100010.78;;;11.05;94.39
61434;BME280;47300;46.192;9.000;2022-11-11T07:49:06;100010.34;;;11.29;91.18
61434;BME280;47300;46.192;9.000;2022-11-11T07:51:32;100001.13;;;11.53;89.85
61434;BME280;47300;46.192;9.000;2022-11-11T07:53:57;100009.91;;;11.53;88.47
61434;BME280;47300;46.192;9.000;2022-11-11T07:56:23;100013.22;;;11.41;89.17
61434;BME280;47300;46.192;9.000;2022-11-11T07:58:48;100017.97;;;11.63;87.67
61434;BME280;47300;46.192;9.000;2022-11-11T08:01:13;100008.22;;;11.57;86.34
61434;BME280;47300;46.192;9.000;2022-11-11T08:03:38;100012.34;;;10.93;86.25
61434;BME280;47300;46.192;9.000;2022-11-11T08:06:15;100011.69;;;11.05;89.99
61434;BME280;47300;46.192;9.000;2022-11-11T08:08:41;100015.44;;;11.18;87.94
61434;BME280;47300;46.192;9.000;2022-11-11T08:11:07;100017.44;;;11.33;87.00
61434;BME280;47300;46.192;9.000;2022-11-11T08:13:32;100016.50;;;11.29;88.86
61434;BME280;47300;46.192;9.000;2022-11-11T08:16:12;100005.50;;;11.52;88.36
61434;BME280;47300;46.192;9.000;2022-11-11T08:18:37;100010.13;;;11.66;86.94
61434;BME280;47300;46.192;9.000;2022-11-11T08:21:04;100007.94;;;11.95;86.05
61434;BME280;47300;46.192;9.000;2022-11-11T08:23:30;100009.53;;;12.44;85.84
61434;BME280;47300;46.192;9.000;2022-11-11T08:26:03;100011.34;;;11.88;82.34
61434;BME280;47300;46.192;9.000;2022-11-11T08:28:30;100013.94;;;11.34;85.87
61434;BME280;47300;46.192;9.000;2022-11-11T08:31:00;100007.16;;;11.47;85.72
61434;BME280;47300;46.192;9.000;2022-11-11T08:33:27;99996.94;;;11.63;86.68
61434;BME280;47300;46.192;9.000;2022-11-11T08:35:53;99997.91;;;12.28;86.55
61434;BME280;47300;46.192;9.000;2022-11-11T08:38:22;99997.47;;;12.60;83.49
61434;BME280;47300;46.192;9.000;2022-11-11T08:40:49;99997.63;;;12.72;80.96
61434;BME280;47300;46.192;9.000;2022-11-11T08:43:14;99987.34;;;12.97;81.15
61434;BME280;47300;46.192;9.000;2022-11-11T08:45:40;99984.84;;;13.08;79.93
61434;BME280;47300;46.192;9.000;2022-11-11T08:48:06;99987.59;;;13.19;78.24
61434;BME280;47300;46.192;9.000;2022-11-11T08:50:35;99987.91;;;13.52;74.61
61434;BME280;47300;46.192;9.000;2022-11-11T08:53:01;99985.84;;;12.42;77.31
61434;BME280;47300;46.192;9.000;2022-11-11T08:55:26;99986.44;;;12.23;78.45
61434;BME280;47300;46.192;9.000;2022-11-11T08:57:59;99980.97;;;12.09;81.20
61434;BME280;47300;46.192;9.000;2022-11-11T09:00:25;99988.97;;;12.15;81.43
61434;BME280;47300;46.192;9.000;2022-11-11T09:02:51;99988.00;;;11.53;81.94
61434;BME280;47300;46.192;9.000;2022-11-11T09:05:16;99987.22;;;11.60;82.47
61434;BME280;47300;46.192;9.000;2022-11-11T09:07:42;99981.97;;;11.60;80.78
61434;BME280;47300;46.192;9.000;2022-11-11T09:10:08;99981.81;;;11.51;82.92
61434;BME280;47300;46.192;9.000;2022-11-11T09:12:33;99981.97;;;11.60;82.28
61434;BME280;47300;46.192;9.000;2022-11-11T09:14:58;99980.31;;;12.24;81.05
61434;BME280;47300;46.192;9.000;2022-11-11T09:17:25;99976.88;;;12.31;82.17
61434;BME280;47300;46.192;9.000;2022-11-11T09:19:51;99970.97;;;12.49;79.83
61434;BME280;47300;46.192;9.000;2022-11-11T09:22:16;99968.38;;;13.31;77.83
61434;BME280;47300;46.192;9.000;2022-11-11T09:24:41;99967.69;;;13.51;73.98
61434;BME280;47300;46.192;9.000;2022-11-11T09:27:08;99958.00;;;13.48;74.47
61434;BME280;47300;46.192;9.000;2022-11-11T09:29:34;99968.44;;;13.42;73.04
61434;BME280;47300;46.192;9.000;2022-11-11T09:31:59;99967.66;;;13.46;73.97
61434;BME280;47300;46.192;9.000;2022-11-11T09:34:24;99968.16;;;13.09;77.10
61434;BME280;47300;46.192;9.000;2022-11-11T09:36:49;99971.19;;;13.50;76.61
61434;BME280;47300;46.192;9.000;2022-11-11T09:39:15;99960.94;;;13.93;76.57
61434;BME280;47300;46.192;9.000;2022-11-11T09:41:55;99960.78;;;13.70;73.02
61434;BME280;47300;46.192;9.000;2022-11-11T09:47:03;99956.38;;;13.64;72.44
61434;BME280;47300;46.192;9.000;2022-11-11T09:49:53;99950.41;;;13.99;68.64
61434;BME280;47300;46.192;9.000;2022-11-11T09:52:30;99958.19;;;13.74;69.10
61434;BME280;47300;46.192;9.000;2022-11-11T09:55:11;99950.34;;;13.85;66.50
61434;BME280;47300;46.192;9.000;2022-11-11T09:57:47;99954.63;;;13.66;65.89
61434;BME280;47300;46.192;9.000;2022-11-11T10:00:23;99948.44;;;13.63;70.77
61434;BME280;47300;46.192;9.000;2022-11-11T10:02:53;99944.31;;;14.05;70.92
61434;BME280;47300;46.192;9.000;2022-11-11T10:05:26;99947.06;;;14.27;66.77
61434;BME280;47300;46.192;9.000;2022-11-11T10:07:58;99940.81;;;14.09;67.76
61434;BME280;47300;46.192;9.000;2022-11-11T10:10:33;99939.69;;;13.70;68.74
61434;BME280;47300;46.192;9.000;2022-11-11T10:13:02;99941.88;;;14.58;70.77
61434;BME280;47300;46.192;9.000;2022-11-11T10:15:48;99931.47;;;15.06;67.27
61434;BME280;47300;46.192;9.000;2022-11-11T10:18:38;99931.50;;;15.37;66.29
61434;BME280;47300;46.192;9.000;2022-11-11T10:21:14;99923.53;;;15.68;66.20
61434;BME280;47300;46.192;9.000;2022-11-11T10:23:42;99930.63;;;15.37;63.96
61434;BME280;47300;46.192;9.000;2022-11-11T10:26:25;99925.28;;;15.97;64.29
61434;BME280;47300;46.192;9.000;2022-11-11T10:28:52;99926.97;;;16.20;64.11
61434;BME280;47300;46.192;9.000;2022-11-11T10:31:20;99920.75;;;16.33;63.75
61434;BME280;47300;46.192;9.000;2022-11-11T10:34:11;99914.59;;;16.31;62.75
61434;BME280;47300;46.192;9.000;2022-11-11T10:36:43;99911.94;;;16.34;62.75
61434;BME280;47300;46.192;9.000;2022-11-11T10:39:14;99905.69;;;16.49;62.91
61434;BME280;47300;46.192;9.000;2022-11-11T10:41:46;99898.69;;;16.25;61.26
61434;BME280;47300;46.192;9.000;2022-11-11T10:44:24;99893.28;;;16.55;60.12
61434;BME280;47300;46.192;9.000;2022-11-11T10:47:09;99891.47;;;16.60;61.43
61434;BME280;47300;46.192;9.000;2022-11-11T10:49:42;99886.13;;;16.64;62.04
61434;BME280;47300;46.192;9.000;2022-11-11T10:52:21;99888.81;;;16.61;61.61
61434;BME280;47300;46.192;9.000;2022-11-11T10:55:04;99893.28;;;16.50;64.29
61434;BME280;47300;46.192;9.000;2022-11-11T11:00:32;99882.41;;;17.00;65.85
61434;BME280;47300;46.192;9.000;2022-11-11T11:03:11;99881.47;;;17.04;67.23
61434;BME280;47300;46.192;9.000;2022-11-11T11:05:46;99872.81;;;16.77;67.02
61434;BME280;47300;46.192;9.000;2022-11-11T11:08:20;99871.94;;;16.78;66.24
61434;BME280;47300;46.192;9.000;2022-11-11T11:10:51;99878.09;;;16.78;66.60
61434;BME280;47300;46.192;9.000;2022-11-11T11:13:26;99878.25;;;16.57;67.09
61434;BME280;47300;46.192;9.000;2022-11-11T11:15:58;99874.75;;;16.47;68.27
61434;BME280;47300;46.192;9.000;2022-11-11T11:18:26;99868.66;;;16.26;70.78
61434;BME280;47300;46.192;9.000;2022-11-11T11:20:57;99865.13;;;16.29;70.43
61434;BME280;47300;46.192;9.000;2022-11-11T11:23:39;99868.75;;;16.15;72.66
61434;BME280;47300;46.192;9.000;2022-11-11T11:26:05;99872.22;;;16.19;73.19
61434;BME280;47300;46.192;9.000;2022-11-11T11:28:31;99864.34;;;16.02;75.08
61434;BME280;47300;46.192;9.000;2022-11-11T11:31:04;99861.72;;;16.02;75.37
61434;BME280;47300;46.192;9.000;2022-11-11T11:33:55;99865.25;;;15.84;76.07
61434;BME280;47300;46.192;9.000;2022-11-11T11:36:20;99867.91;;;15.81;75.44
61434;BME280;47300;46.192;9.000;2022-11-11T11:38:48;99854.69;;;15.95;76.47
61434;BME280;47300;46.192;9.000;2022-11-11T11:41:17;99857.25;;;16.19;76.00
61434;BME280;47300;46.192;9.000;2022-11-11T11:43:59;99857.13;;;16.40;76.25
61434;BME280;47300;46.192;9.000;2022-11-11T11:46:37;99852.72;;;16.42;72.38
61434;BME280;47300;46.192;9.000;2022-11-11T11:51:42;99856.94;;;16.72;70.51
61434;BME280;47300;46.192;9.000;2022-11-11T11:56:42;99848.09;;;16.70;69.14
61434;BME280;47300;46.192;9.000;2022-11-11T11:59:13;99841.97;;;16.60;69.72
61434;BME280;47300;46.192;9.000;2022-11-11T12:11:59;99839.13;;;16.93;68.71
61434;BME280;47300;46.192;9.000;2022-11-11T12:17:29;99846.38;;;16.66;69.07
61434;BME280;47300;46.192;9.000;2022-11-11T12:20:17;99840.13;;;16.73;67.70
61434;BME280;47300;46.192;9.000;2022-11-11T12:36:27;99830.47;;;17.71;67.66
61434;BME280;47300;46.192;9.000;2022-11-11T12:41:53;99825.22;;;17.64;64.74
61434;BME280;47300;46.192;9.000;2022-11-11T12:44:14;99829.50;;;17.76;64.90
61434;BME280;47300;46.192;9.000;2022-11-11T12:52:11;99829.09;;;17.32;64.48
61434;BME280;47300;46.192;9.000;2022-11-11T13:00:11;99832.56;;;17.38;63.42
61434;BME280;47300;46.192;9.000;2022-11-11T13:02:57;99838.69;;;17.47;63.61
61434;BME280;47300;46.192;9.000;2022-11-11T13:05:33;99832.59;;;17.33;62.00
61434;BME280;47300;46.192;9.000;2022-11-11T13:08:09;99836.97;;;17.37;62.77
61434;BME280;47300;46.192;9.000;2022-11-11T13:16:09;99850.22;;;17.43;63.11
61434;BME280;47300;46.192;9.000;2022-11-11T13:21:07;99857.47;;;17.24;61.69
61434;BME280;47300;46.192;9.000;2022-11-11T13:23:33;99857.38;;;17.32;62.83
61434;BME280;47300;46.192;9.000;2022-11-11T13:26:02;99857.41;;;17.29;61.11
61434;BME280;47300;46.192;9.000;2022-11-11T13:28:40;99849.38;;;17.36;61.46
61434;BME280;47300;46.192;9.000;2022-11-11T13:31:24;99856.66;;;17.13;60.68
61434;BME280;47300;46.192;9.000;2022-11-11T13:33:57;99853.22;;;17.00;60.92
61434;BME280;47300;46.192;9.000;2022-11-11T13:36:28;99861.16;;;17.03;61.10
61434;BME280;47300;46.192;9.000;2022-11-11T13:38:56;99858.50;;;17.03;60.64
61434;BME280;47300;46.192;9.000;2022-11-11T13:41:33;99855.88;;;16.97;60.70
61434;BME280;47300;46.192;9.000;2022-11-11T13:44:07;99854.13;;;16.94;61.58
61434;BME280;47300;46.192;9.000;2022-11-11T13:46:44;99853.25;;;16.95;63.32
61434;BME280;47300;46.192;9.000;2022-11-11T13:49:27;99858.53;;;16.93;62.13
61434;BME280;47300;46.192;9.000;2022-11-11T13:52:02;99855.91;;;16.95;61.19
61434;BME280;47300;46.192;9.000;2022-11-11T13:54:34;99855.00;;;16.99;61.17
61434;BME280;47300;46.192;9.000;2022-11-11T13:57:25;99865.59;;;17.01;62.02
61434;BME280;47300;46.192;9.000;2022-11-11T14:00:01;99865.56;;;17.04;61.00
61434;BME280;47300;46.192;9.000;2022-11-11T14:07:52;99868.38;;;16.77;62.10
61434;BME280;47300;46.192;9.000;2022-11-11T14:18:00;99873.84;;;16.51;62.40
61434;BME280;47300;46.192;9.000;2022-11-11T14:25:48;99877.47;;;16.36;63.03
61434;BME280;47300;46.192;9.000;2022-11-11T14:30:48;99877.47;;;16.33;65.66
61434;BME280;47300;46.192;9.000;2022-11-11T14:33:28;99876.56;;;16.40;65.60
61434;BME280;47300;46.192;9.000;2022-11-11T14:36:03;99871.25;;;16.40;66.07
61434;BME280;47300;46.192;9.000;2022-11-11T14:41:44;99873.97;;;16.31;66.11
61434;BME280;47300;46.192;9.000;2022-11-11T14:57:41;99869.66;;;16.06;68.64
61434;BME280;47300;46.192;9.000;2022-11-11T15:00:27;99868.78;;;16.01;67.76
61434;BME280;47300;46.192;9.000;2022-11-11T15:03:03;99870.53;;;16.01;68.30